Time;durP1;ratioP1;P1;durP2;ratioP2;P2;SDS_P1;SDS_P2;PMS_P1;PMS_P2;Temp;Humidity;BMP_temperature;BMP_pressure;BME280_temperature;BME280_humidity;BME280_pressure;Samples;Min_cycle;Max_cycle;Signal;HPM_P1;HPM_P2
2021/12/25 00:00:11;;;;;;;11.80;8.30;;;;;;;;;;4859493;29;20131;-86
2021/12/25 00:02:37;;;;;;;13.45;8.38;;;;;;;;;;4875352;29;20037;-84
2021/12/25 00:05:04;;;;;;;11.93;8.10;;;;;;;;;;4874728;29;20036;-83
2021/12/25 00:07:30;;;;;;;11.70;7.80;;;;;;;;;;4861784;29;20116;-84
2021/12/25 00:09:56;;;;;;;11.07;7.68;;;;;;;;;;4867495;29;21637;-84
2021/12/25 00:12:21;;;;;;;12.50;8.40;;;;;;;;;;4863818;29;20028;-85
2021/12/25 00:14:46;;;;;;;12.43;8.20;;;;;;;;;;4859958;29;20025;-83
2021/12/25 00:17:12;;;;;;;12.30;8.00;;;;;;;;;;4858757;29;20564;-84
2021/12/25 00:19:37;;;;;;;11.57;8.15;;;;;;;;;;4859039;29;20048;-86
2021/12/25 00:22:03;;;;;;;12.48;8.52;;;;;;;;;;4859943;29;20043;-86
2021/12/25 00:24:28;;;;;;;12.65;8.82;;;;;;;;;;4862224;29;20064;-86
2021/12/25 00:27:01;;;;;;;14.30;8.90;;;;;;;;;;4859882;29;20051;-85
2021/12/25 00:32:46;;;;;;;11.80;8.30;;;;;;;;;;4861272;29;19923;-88
2021/12/25 00:34:47;;;;;;;12.23;8.65;;;;;;;;;;4870936;29;20063;-89
2021/12/25 00:37:13;;;;;;;12.45;8.85;;;;;;;;;;4859105;29;20041;-81
2021/12/25 00:39:39;;;;;;;16.20;8.63;;;;;;;;;;4861945;29;20049;-88
2021/12/25 00:42:06;;;;;;;13.35;8.60;;;;;;;;;;4882228;29;20025;-80
2021/12/25 00:44:33;;;;;;;13.35;8.13;;;;;;;;;;4868604;29;20434;-88
2021/12/25 00:46:59;;;;;;;12.18;8.25;;;;;;;;;;4864152;29;20067;-86
2021/12/25 00:49:25;;;;;;;13.32;8.43;;;;;;;;;;4869155;29;20053;-84
2021/12/25 00:51:51;;;;;;;12.82;8.40;;;;;;;;;;4861710;29;20056;-81
2021/12/25 00:54:16;;;;;;;12.82;7.95;;;;;;;;;;4878255;29;20472;-88
2021/12/25 00:56:42;;;;;;;11.20;7.60;;;;;;;;;;4873247;29;20089;-81
2021/12/25 00:59:08;;;;;;;14.93;8.35;;;;;;;;;;4869239;29;20029;-90
2021/12/25 01:01:34;;;;;;;13.90;8.15;;;;;;;;;;4867213;29;20039;-90
2021/12/25 01:03:59;;;;;;;13.00;8.10;;;;;;;;;;4884729;29;20025;-83
2021/12/25 01:06:25;;;;;;;13.18;8.25;;;;;;;;;;4870731;29;20176;-86
2021/12/25 01:08:50;;;;;;;13.82;7.70;;;;;;;;;;4859572;29;20552;-89
2021/12/25 01:11:16;;;;;;;11.85;7.60;;;;;;;;;;4858968;29;20088;-86
2021/12/25 01:13:54;;;;;;;13.27;7.97;;;;;;;;;;4864233;29;20040;-87
2021/12/25 01:16:43;;;;;;;12.43;7.90;;;;;;;;;;4864276;29;20053;-82
2021/12/25 01:21:47;;;;;;;12.57;7.85;;;;;;;;;;4860206;29;20029;-86
2021/12/25 01:26:59;;;;;;;11.63;7.78;;;;;;;;;;4860626;29;20125;-81
2021/12/25 01:29:38;;;;;;;11.23;7.05;;;;;;;;;;4861496;29;20048;-81
2021/12/25 01:47:50;;;;;;;9.27;6.00;;;;;;;;;;4864126;29;20040;-81
2021/12/25 01:50:22;;;;;;;9.23;6.13;;;;;;;;;;4866837;29;20025;-87
2021/12/25 01:52:47;;;;;;;9.25;6.15;;;;;;;;;;4860628;29;20033;-83
2021/12/25 01:55:20;;;;;;;10.18;6.32;;;;;;;;;;4862351;29;20173;-86
2021/12/25 01:57:46;;;;;;;9.83;6.23;;;;;;;;;;4856748;29;20497;-89
2021/12/25 02:00:19;;;;;;;10.32;6.80;;;;;;;;;;4860540;29;20303;-90
2021/12/25 02:02:46;;;;;;;10.25;6.78;;;;;;;;;;4859929;29;20025;-83
2021/12/25 02:05:12;;;;;;;8.93;6.13;;;;;;;;;;4860643;29;20025;-89
2021/12/25 02:07:37;;;;;;;11.07;7.10;;;;;;;;;;4861427;29;20049;-89
2021/12/25 02:10:05;;;;;;;10.30;6.60;;;;;;;;;;4864132;29;20052;-86
2021/12/25 02:12:32;;;;;;;12.68;7.93;;;;;;;;;;4864515;29;20040;-90
2021/12/25 02:15:03;;;;;;;11.38;7.35;;;;;;;;;;4858799;29;20049;-81
2021/12/25 02:17:46;;;;;;;10.75;7.40;;;;;;;;;;4858064;29;20029;-82
2021/12/25 02:20:18;;;;;;;10.38;6.85;;;;;;;;;;4857338;29;20029;-89
2021/12/25 02:22:48;;;;;;;11.93;7.60;;;;;;;;;;4876445;29;20076;-80
2021/12/25 02:25:14;;;;;;;12.00;7.65;;;;;;;;;;4860176;29;20056;-82
2021/12/25 02:27:40;;;;;;;12.55;8.10;;;;;;;;;;4859486;29;20077;-80
2021/12/25 02:30:07;;;;;;;13.68;8.15;;;;;;;;;;4856779;29;20492;-90
2021/12/25 02:32:32;;;;;;;12.23;8.43;;;;;;;;;;4858163;29;20499;-80
2021/12/25 02:34:58;;;;;;;13.02;8.02;;;;;;;;;;4858411;29;20029;-82
2021/12/25 02:37:24;;;;;;;12.75;7.53;;;;;;;;;;4853708;29;20094;-91
2021/12/25 02:39:50;;;;;;;12.27;7.80;;;;;;;;;;4851188;29;20036;-85
2021/12/25 02:42:16;;;;;;;11.75;7.88;;;;;;;;;;4864864;29;20092;-81
2021/12/25 02:44:42;;;;;;;12.77;8.43;;;;;;;;;;4852962;29;20065;-82
2021/12/25 02:47:16;;;;;;;13.30;8.75;;;;;;;;;;4856578;29;20112;-88
2021/12/25 02:49:47;;;;;;;14.45;9.05;;;;;;;;;;4855246;29;20033;-84
2021/12/25 02:52:12;;;;;;;13.98;9.27;;;;;;;;;;4856700;29;20029;-81
2021/12/25 02:54:38;;;;;;;16.27;10.25;;;;;;;;;;4856418;29;20048;-82
2021/12/25 02:57:03;;;;;;;16.85;10.38;;;;;;;;;;4856638;29;20101;-86
2021/12/25 02:59:28;;;;;;;14.88;9.80;;;;;;;;;;4855013;29;20030;-91
2021/12/25 03:01:54;;;;;;;16.80;11.05;;;;;;;;;;4855712;29;20098;-82
2021/12/25 03:04:19;;;;;;;16.35;10.77;;;;;;;;;;4852156;29;20081;-82
2021/12/25 03:06:45;;;;;;;18.20;11.55;;;;;;;;;;4851429;29;20771;-90
2021/12/25 03:09:10;;;;;;;18.88;12.07;;;;;;;;;;4856186;29;20053;-84
2021/12/25 03:11:35;;;;;;;20.00;11.82;;;;;;;;;;4855689;29;20025;-79
2021/12/25 03:14:13;;;;;;;19.42;11.55;;;;;;;;;;4859384;29;20025;-86
2021/12/25 03:16:39;;;;;;;18.67;11.45;;;;;;;;;;4853341;29;20029;-92
2021/12/25 03:19:09;;;;;;;18.35;11.80;;;;;;;;;;4856507;29;20045;-88
2021/12/25 03:21:34;;;;;;;19.55;12.80;;;;;;;;;;4854852;29;20030;-85
2021/12/25 03:23:59;;;;;;;17.50;11.30;;;;;;;;;;4854017;29;20088;-89
2021/12/25 03:26:25;;;;;;;20.27;12.77;;;;;;;;;;4855999;29;20124;-89
2021/12/25 03:28:53;;;;;;;19.25;12.57;;;;;;;;;;4853741;29;20092;-89
2021/12/25 03:31:21;;;;;;;19.33;12.27;;;;;;;;;;4853401;29;20036;-79
2021/12/25 03:33:55;;;;;;;19.75;12.70;;;;;;;;;;4856732;29;20141;-85
2021/12/25 03:36:21;;;;;;;19.13;11.80;;;;;;;;;;4853391;29;20033;-79
2021/12/25 03:38:47;;;;;;;19.92;12.00;;;;;;;;;;4854234;29;20062;-82
2021/12/25 03:41:13;;;;;;;22.30;13.35;;;;;;;;;;4851911;29;20492;-80
2021/12/25 03:43:40;;;;;;;17.80;11.98;;;;;;;;;;4853932;29;20036;-91
2021/12/25 03:46:11;;;;;;;20.65;12.82;;;;;;;;;;4856505;29;20049;-81
2021/12/25 03:59:09;;;;;;;20.25;11.90;;;;;;;;;;4856762;29;20537;-90
2021/12/25 04:04:19;;;;;;;20.30;12.30;;;;;;;;;;4857800;29;20470;-85
2021/12/25 04:06:58;;;;;;;19.65;12.32;;;;;;;;;;4850769;29;20036;-81
2021/12/25 04:09:29;;;;;;;19.92;12.73;;;;;;;;;;4870428;29;20055;-90
2021/12/25 04:12:00;;;;;;;19.55;11.65;;;;;;;;;;4858532;29;20056;-82
2021/12/25 04:14:25;;;;;;;17.35;11.23;;;;;;;;;;4863857;29;20033;-80
2021/12/25 04:16:51;;;;;;;20.67;12.65;;;;;;;;;;4861286;29;20101;-85
2021/12/25 04:19:17;;;;;;;19.33;11.63;;;;;;;;;;4856487;29;20037;-82
2021/12/25 04:22:09;;;;;;;19.17;12.00;;;;;;;;;;4872332;29;20025;-89
2021/12/25 04:24:32;;;;;;;19.25;12.07;;;;;;;;;;4872564;29;20039;-79
2021/12/25 04:26:58;;;;;;;19.67;11.80;;;;;;;;;;4868763;29;20032;-79
2021/12/25 05:04:43;;;;;;;18.02;10.23;;;;;;;;;;4872891;29;20039;-89
2021/12/25 05:07:02;;;;;;;17.15;9.65;;;;;;;;;;4875021;29;20061;-90
2021/12/25 05:09:28;;;;;;;15.07;9.73;;;;;;;;;;4861289;29;20105;-81
2021/12/25 05:11:53;;;;;;;15.65;9.27;;;;;;;;;;4874341;29;20025;-90
2021/12/25 05:14:18;;;;;;;18.55;10.20;;;;;;;;;;4856645;29;20040;-88
2021/12/25 05:16:44;;;;;;;16.52;10.15;;;;;;;;;;4856367;29;20124;-90
2021/12/25 05:19:10;;;;;;;17.17;8.98;;;;;;;;;;4859141;29;20037;-80
2021/12/25 05:21:36;;;;;;;19.08;10.60;;;;;;;;;;4859456;29;20286;-85
2021/12/25 05:24:02;;;;;;;16.08;9.48;;;;;;;;;;4864330;29;20033;-88
2021/12/25 05:26:27;;;;;;;16.48;9.88;;;;;;;;;;4871919;29;20037;-84
2021/12/25 05:29:00;;;;;;;15.55;9.43;;;;;;;;;;4857145;29;20045;-82
2021/12/25 05:31:28;;;;;;;14.05;9.13;;;;;;;;;;4868178;29;20516;-81
2021/12/25 05:33:54;;;;;;;14.95;8.77;;;;;;;;;;4856144;29;20540;-86
2021/12/25 05:36:20;;;;;;;16.73;9.75;;;;;;;;;;4870837;29;20035;-85
2021/12/25 05:38:45;;;;;;;16.25;9.60;;;;;;;;;;4850961;29;20037;-88
2021/12/25 05:41:12;;;;;;;14.77;9.07;;;;;;;;;;4859778;29;20504;-82
2021/12/25 05:43:37;;;;;;;16.33;8.98;;;;;;;;;;4865581;29;20024;-82
2021/12/25 05:46:03;;;;;;;15.48;9.25;;;;;;;;;;4860783;29;20061;-85
2021/12/25 05:48:29;;;;;;;14.98;8.38;;;;;;;;;;4862119;29;20028;-79
2021/12/25 05:50:54;;;;;;;13.32;8.18;;;;;;;;;;4864847;29;20045;-91
2021/12/25 05:53:20;;;;;;;13.90;7.82;;;;;;;;;;4859814;29;20036;-92
2021/12/25 05:55:45;;;;;;;13.48;8.07;;;;;;;;;;4878056;29;20461;-85
2021/12/25 05:58:10;;;;;;;14.93;7.70;;;;;;;;;;4861751;29;20049;-81
2021/12/25 06:00:37;;;;;;;12.20;7.43;;;;;;;;;;4861030;29;20040;-89
2021/12/25 06:03:03;;;;;;;11.50;6.75;;;;;;;;;;4861470;29;20036;-84
2021/12/25 06:05:29;;;;;;;12.07;6.78;;;;;;;;;;4869744;29;20040;-81
2021/12/25 06:07:55;;;;;;;11.32;7.30;;;;;;;;;;4877687;29;20384;-92
2021/12/25 06:10:20;;;;;;;11.68;7.22;;;;;;;;;;4856421;29;20049;-81
2021/12/25 06:12:50;;;;;;;10.50;6.10;;;;;;;;;;4858714;29;20037;-87
2021/12/25 06:15:19;;;;;;;12.35;6.47;;;;;;;;;;4852787;29;20128;-79
2021/12/25 06:17:45;;;;;;;9.35;5.32;;;;;;;;;;4856004;29;20041;-79
2021/12/25 06:20:12;;;;;;;7.82;4.90;;;;;;;;;;4863104;29;20040;-85
2021/12/25 06:22:38;;;;;;;8.93;4.80;;;;;;;;;;4857399;29;20129;-85
2021/12/25 06:25:05;;;;;;;8.10;4.45;;;;;;;;;;4856240;29;20034;-85
2021/12/25 06:27:30;;;;;;;8.10;4.65;;;;;;;;;;4857247;29;20565;-80
2021/12/25 06:29:56;;;;;;;8.15;4.53;;;;;;;;;;4859101;29;20029;-91
2021/12/25 06:32:21;;;;;;;8.70;4.28;;;;;;;;;;4857473;29;20037;-79
2021/12/25 06:34:46;;;;;;;7.88;4.10;;;;;;;;;;4854338;29;20029;-81
2021/12/25 06:37:13;;;;;;;7.03;4.05;;;;;;;;;;4855833;29;20397;-85
2021/12/25 06:39:40;;;;;;;6.05;3.60;;;;;;;;;;4854134;29;20128;-80
2021/12/25 06:42:07;;;;;;;8.32;4.10;;;;;;;;;;4857786;29;20029;-81
2021/12/25 06:44:32;;;;;;;7.80;3.97;;;;;;;;;;4856367;29;20033;-89
2021/12/25 06:46:58;;;;;;;7.50;3.80;;;;;;;;;;4859668;29;20033;-84
2021/12/25 06:49:24;;;;;;;6.22;3.53;;;;;;;;;;4853092;29;20037;-84
2021/12/25 06:51:52;;;;;;;6.75;3.50;;;;;;;;;;4846219;29;20520;-84
2021/12/25 06:54:18;;;;;;;5.70;3.30;;;;;;;;;;4854505;29;20085;-81
2021/12/25 06:56:46;;;;;;;6.53;3.33;;;;;;;;;;4860283;29;20029;-78
2021/12/25 06:59:11;;;;;;;5.18;3.63;;;;;;;;;;4852158;29;20720;-90
2021/12/25 07:01:37;;;;;;;6.63;3.63;;;;;;;;;;4855903;29;20037;-83
2021/12/25 07:04:09;;;;;;;7.22;3.45;;;;;;;;;;4856740;29;20021;-84
2021/12/25 07:06:36;;;;;;;8.85;3.92;;;;;;;;;;4854216;29;20434;-84
2021/12/25 07:09:03;;;;;;;5.40;3.58;;;;;;;;;;4854270;29;20049;-79
2021/12/25 07:11:28;;;;;;;6.28;3.53;;;;;;;;;;4857190;29;20033;-81
2021/12/25 07:13:53;;;;;;;6.28;4.13;;;;;;;;;;4856365;29;20048;-81
2021/12/25 07:16:19;;;;;;;5.28;3.70;;;;;;;;;;4852497;29;20068;-84
2021/12/25 07:18:45;;;;;;;6.35;3.65;;;;;;;;;;4856741;29;20029;-78
2021/12/25 07:21:11;;;;;;;6.97;4.50;;;;;;;;;;4854843;29;20076;-81
2021/12/25 07:23:36;;;;;;;6.47;3.83;;;;;;;;;;4857206;29;20498;-81
2021/12/25 07:26:03;;;;;;;7.45;4.53;;;;;;;;;;4857026;29;20482;-87
2021/12/25 07:28:28;;;;;;;9.13;4.32;;;;;;;;;;4862432;29;20117;-83
2021/12/25 07:30:56;;;;;;;6.45;4.35;;;;;;;;;;4853682;29;20128;-78
2021/12/25 07:33:22;;;;;;;8.32;4.43;;;;;;;;;;4857346;29;20033;-88
2021/12/25 07:35:47;;;;;;;6.72;4.13;;;;;;;;;;4855118;29;20033;-83
2021/12/25 07:38:15;;;;;;;6.72;4.13;;;;;;;;;;4854318;29;20527;-79
2021/12/25 07:40:40;;;;;;;8.60;4.32;;;;;;;;;;4855380;29;20386;-88
2021/12/25 07:43:06;;;;;;;7.15;4.22;;;;;;;;;;4858908;29;20048;-79
2021/12/25 07:45:31;;;;;;;8.02;4.72;;;;;;;;;;4854770;29;20086;-84
2021/12/25 07:48:02;;;;;;;8.00;4.40;;;;;;;;;;4851703;29;20393;-89
2021/12/25 07:50:31;;;;;;;6.55;4.40;;;;;;;;;;4850833;29;20042;-84
2021/12/25 07:52:57;;;;;;;8.50;4.40;;;;;;;;;;4847419;29;20033;-85
2021/12/25 07:55:22;;;;;;;7.32;4.32;;;;;;;;;;4852324;29;20159;-85
2021/12/25 07:57:48;;;;;;;8.13;4.88;;;;;;;;;;4853086;29;20121;-84
2021/12/25 08:00:17;;;;;;;7.35;4.50;;;;;;;;;;4858553;29;20037;-87
2021/12/25 08:02:45;;;;;;;10.18;4.53;;;;;;;;;;4855614;29;20033;-82
2021/12/25 08:05:11;;;;;;;7.05;4.68;;;;;;;;;;4858279;29;20021;-79
2021/12/25 08:07:36;;;;;;;6.75;4.53;;;;;;;;;;4854099;29;20073;-80
2021/12/25 08:10:13;;;;;;;7.35;4.55;;;;;;;;;;4848719;29;20617;-87
2021/12/25 08:12:54;;;;;;;9.88;4.78;;;;;;;;;;4853308;29;20036;-82
2021/12/25 08:15:22;;;;;;;6.53;3.85;;;;;;;;;;4867322;29;20072;-84
2021/12/25 08:17:47;;;;;;;6.93;4.57;;;;;;;;;;4851583;29;20041;-81
2021/12/25 08:20:13;;;;;;;6.85;4.32;;;;;;;;;;4857671;29;20512;-81
2021/12/25 08:22:39;;;;;;;10.27;4.80;;;;;;;;;;4856118;29;20044;-85
2021/12/25 08:25:06;;;;;;;6.10;4.03;;;;;;;;;;4859179;29;20029;-87
2021/12/25 08:27:32;;;;;;;6.65;4.40;;;;;;;;;;4855819;29;20086;-84
2021/12/25 08:29:58;;;;;;;8.60;4.57;;;;;;;;;;4856892;29;20029;-81
2021/12/25 08:32:24;;;;;;;6.88;4.53;;;;;;;;;;4854991;29;20081;-84
2021/12/25 08:34:50;;;;;;;7.03;4.40;;;;;;;;;;4851879;29;20044;-80
2021/12/25 08:37:16;;;;;;;6.95;4.55;;;;;;;;;;4852036;29;20552;-80
2021/12/25 08:39:42;;;;;;;6.60;4.43;;;;;;;;;;4867679;29;20033;-82
2021/12/25 08:42:09;;;;;;;7.18;4.47;;;;;;;;;;4855605;29;20111;-88
2021/12/25 08:44:52;;;;;;;7.25;4.63;;;;;;;;;;4857834;29;20030;-82
2021/12/25 08:47:17;;;;;;;6.70;4.07;;;;;;;;;;4851143;29;20041;-84
2021/12/25 08:49:42;;;;;;;5.93;3.85;;;;;;;;;;4857805;29;20117;-79
2021/12/25 08:52:12;;;;;;;7.70;4.32;;;;;;;;;;4853317;29;20095;-84
2021/12/25 08:54:38;;;;;;;6.68;3.80;;;;;;;;;;4852745;29;20457;-84
2021/12/25 08:57:06;;;;;;;8.10;4.50;;;;;;;;;;4857981;29;20074;-84
2021/12/25 08:59:33;;;;;;;10.00;5.28;;;;;;;;;;4856043;29;20041;-84
2021/12/25 09:01:59;;;;;;;7.70;4.40;;;;;;;;;;4851963;29;20417;-84
2021/12/25 09:04:24;;;;;;;6.72;4.22;;;;;;;;;;4852864;29;20030;-88
2021/12/25 09:06:50;;;;;;;7.28;4.65;;;;;;;;;;4859092;29;20049;-84
2021/12/25 09:09:15;;;;;;;7.95;4.40;;;;;;;;;;4852246;29;20523;-85
2021/12/25 09:11:41;;;;;;;8.27;5.03;;;;;;;;;;4858320;29;20044;-85
2021/12/25 09:14:07;;;;;;;6.65;4.20;;;;;;;;;;4860105;29;20033;-85
2021/12/25 09:16:33;;;;;;;7.00;4.47;;;;;;;;;;4857614;29;20045;-80
2021/12/25 09:18:58;;;;;;;8.13;4.82;;;;;;;;;;4849743;29;20037;-81
2021/12/25 09:21:24;;;;;;;8.43;4.75;;;;;;;;;;4854729;29;20108;-89
2021/12/25 09:23:52;;;;;;;7.18;4.20;;;;;;;;;;4853451;29;20105;-88
2021/12/25 09:26:18;;;;;;;9.95;4.93;;;;;;;;;;4863370;29;20037;-79
2021/12/25 09:28:47;;;;;;;6.68;4.32;;;;;;;;;;4858415;29;20030;-78
2021/12/25 09:31:17;;;;;;;7.03;4.53;;;;;;;;;;4857540;29;20029;-81
2021/12/25 09:33:49;;;;;;;7.60;4.35;;;;;;;;;;4859674;29;20045;-87
2021/12/25 09:36:20;;;;;;;6.32;4.13;;;;;;;;;;4859728;29;20042;-85
2021/12/25 09:38:50;;;;;;;6.45;3.92;;;;;;;;;;4856222;29;20046;-81
2021/12/25 09:41:19;;;;;;;6.72;4.10;;;;;;;;;;4857659;29;20065;-85
2021/12/25 09:43:51;;;;;;;6.60;3.75;;;;;;;;;;4857240;29;20022;-79
2021/12/25 09:46:23;;;;;;;7.55;3.75;;;;;;;;;;4857858;29;20031;-87
2021/12/25 09:48:51;;;;;;;6.20;3.63;;;;;;;;;;4857922;29;20117;-79
2021/12/25 09:51:19;;;;;;;7.53;4.13;;;;;;;;;;4857190;29;20041;-78
2021/12/25 09:54:04;;;;;;;5.15;3.15;;;;;;;;;;4868278;29;20104;-85
2021/12/25 09:56:30;;;;;;;5.65;3.35;;;;;;;;;;4855837;29;20840;-89
2021/12/25 09:58:56;;;;;;;5.88;3.67;;;;;;;;;;4847805;29;20123;-81
2021/12/25 10:01:45;;;;;;;5.82;3.22;;;;;;;;;;4867671;29;20120;-91
2021/12/25 10:04:33;;;;;;;5.50;2.90;;;;;;;;;;4861379;29;20032;-79
2021/12/25 10:07:29;;;;;;;4.55;2.42;;;;;;;;;;4845306;29;20041;-91
2021/12/25 10:09:58;;;;;;;4.53;2.55;;;;;;;;;;4862816;29;20068;-79
2021/12/25 10:12:42;;;;;;;5.93;2.58;;;;;;;;;;4861831;29;20442;-81
2021/12/25 10:15:11;;;;;;;6.40;2.53;;;;;;;;;;4860215;29;20102;-85
2021/12/25 10:17:47;;;;;;;3.80;2.25;;;;;;;;;;4862867;29;20036;-79
2021/12/25 10:20:33;;;;;;;3.45;2.00;;;;;;;;;;4862248;29;20449;-82
2021/12/25 10:23:06;;;;;;;3.70;1.85;;;;;;;;;;4856316;29;20053;-81
2021/12/25 10:25:42;;;;;;;3.33;1.98;;;;;;;;;;4858724;29;20050;-79
2021/12/25 10:28:09;;;;;;;3.55;1.92;;;;;;;;;;4856613;29;20061;-81
2021/12/25 10:30:45;;;;;;;4.60;2.20;;;;;;;;;;4858184;29;20048;-89
2021/12/25 10:33:28;;;;;;;2.90;1.65;;;;;;;;;;4852516;29;20049;-78
2021/12/25 10:35:58;;;;;;;3.38;1.80;;;;;;;;;;4865548;29;20031;-80
2021/12/25 10:38:24;;;;;;;4.30;2.10;;;;;;;;;;4855880;29;20521;-82
2021/12/25 10:41:06;;;;;;;3.45;1.80;;;;;;;;;;4860412;29;20038;-89
2021/12/25 10:43:35;;;;;;;3.58;1.75;;;;;;;;;;4859593;29;20443;-79
2021/12/25 10:46:02;;;;;;;3.35;1.63;;;;;;;;;;4857371;29;20129;-84
2021/12/25 10:48:29;;;;;;;3.22;1.67;;;;;;;;;;4857105;29;20820;-85
2021/12/25 10:50:56;;;;;;;2.67;1.50;;;;;;;;;;4856922;29;20081;-79
2021/12/25 10:53:24;;;;;;;3.35;1.70;;;;;;;;;;4855537;29;20033;-81
2021/12/25 10:55:50;;;;;;;4.93;1.80;;;;;;;;;;4864694;29;20627;-79
2021/12/25 10:58:22;;;;;;;3.90;1.75;;;;;;;;;;4857943;29;20036;-85
2021/12/25 11:00:55;;;;;;;2.92;1.40;;;;;;;;;;4860699;29;20038;-79
2021/12/25 11:03:30;;;;;;;3.70;1.65;;;;;;;;;;4856456;29;20119;-89
2021/12/25 11:06:07;;;;;;;3.42;1.80;;;;;;;;;;4870895;29;20025;-79
2021/12/25 11:08:33;;;;;;;3.30;1.65;;;;;;;;;;4860121;29;20500;-79
2021/12/25 11:11:11;;;;;;;4.93;1.90;;;;;;;;;;4881221;29;20166;-79
2021/12/25 11:13:48;;;;;;;3.25;1.70;;;;;;;;;;4861315;29;20033;-88
2021/12/25 11:19:14;;;;;;;2.97;1.52;;;;;;;;;;4870266;29;20116;-85
2021/12/25 11:21:45;;;;;;;3.10;1.85;;;;;;;;;;4873007;29;20048;-90
2021/12/25 11:24:13;;;;;;;4.07;1.98;;;;;;;;;;4864471;29;20037;-81
2021/12/25 11:26:41;;;;;;;5.40;1.85;;;;;;;;;;4862969;29;20124;-88
2021/12/25 11:29:09;;;;;;;2.75;1.40;;;;;;;;;;4859522;29;20810;-86
2021/12/25 11:31:35;;;;;;;2.58;1.40;;;;;;;;;;4874220;29;20189;-89
2021/12/25 11:34:03;;;;;;;3.40;1.58;;;;;;;;;;4859178;29;20049;-89
2021/12/25 11:36:28;;;;;;;5.85;1.40;;;;;;;;;;4858763;29;20088;-83
2021/12/25 11:38:54;;;;;;;2.95;1.58;;;;;;;;;;4877862;29;20067;-88
2021/12/25 11:41:28;;;;;;;4.88;1.60;;;;;;;;;;4882392;29;20457;-80
2021/12/25 11:43:54;;;;;;;3.30;1.52;;;;;;;;;;4864718;29;20555;-80
2021/12/25 11:46:23;;;;;;;2.92;1.52;;;;;;;;;;4875613;29;20028;-85
2021/12/25 11:49:05;;;;;;;3.22;1.60;;;;;;;;;;4860384;29;20033;-83
2021/12/25 11:51:31;;;;;;;2.33;1.17;;;;;;;;;;4864284;29;20056;-89
2021/12/25 11:56:34;;;;;;;4.28;1.65;;;;;;;;;;4874170;29;20045;-85
2021/12/25 11:59:09;;;;;;;3.20;1.50;;;;;;;;;;4860004;29;23118;-86
2021/12/25 12:01:37;;;;;;;3.25;1.50;;;;;;;;;;4871486;29;20088;-80
2021/12/25 12:04:24;;;;;;;3.33;1.50;;;;;;;;;;4865261;29;20107;-81
2021/12/25 12:06:56;;;;;;;2.75;1.38;;;;;;;;;;4862550;29;20484;-80
2021/12/25 12:09:45;;;;;;;2.92;1.35;;;;;;;;;;4878501;29;20045;-79
2021/12/25 12:12:39;;;;;;;3.10;1.48;;;;;;;;;;4875941;29;20056;-79
2021/12/25 12:15:17;;;;;;;2.75;1.25;;;;;;;;;;4851404;29;20568;-79
2021/12/25 12:17:43;;;;;;;2.92;1.52;;;;;;;;;;4860671;29;20028;-79
2021/12/25 12:20:15;;;;;;;3.15;1.45;;;;;;;;;;4857862;29;20045;-86
2021/12/25 12:22:51;;;;;;;2.95;1.40;;;;;;;;;;4870862;29;20056;-80
2021/12/25 12:25:41;;;;;;;2.97;1.45;;;;;;;;;;4874896;29;20116;-89
2021/12/25 12:28:08;;;;;;;2.90;1.30;;;;;;;;;;4856881;29;20091;-88
2021/12/25 12:30:40;;;;;;;2.50;1.40;;;;;;;;;;4874586;29;20081;-89
2021/12/25 12:33:12;;;;;;;4.50;1.30;;;;;;;;;;4866166;29;20044;-79
2021/12/25 12:35:39;;;;;;;2.17;1.35;;;;;;;;;;4875123;29;20051;-79
2021/12/25 12:38:38;;;;;;;2.30;1.48;;;;;;;;;;4853311;29;20021;-81
2021/12/25 12:41:22;;;;;;;3.20;1.30;;;;;;;;;;4860725;29;20033;-81
2021/12/25 12:44:05;;;;;;;2.60;1.52;;;;;;;;;;4856623;29;20430;-82
2021/12/25 12:46:48;;;;;;;3.17;1.73;;;;;;;;;;4866822;29;20040;-81
2021/12/25 12:49:19;;;;;;;2.45;1.25;;;;;;;;;;4866517;29;20041;-80
2021/12/25 12:51:47;;;;;;;2.80;1.38;;;;;;;;;;4878584;29;20120;-81
2021/12/25 12:54:38;;;;;;;2.90;1.40;;;;;;;;;;4858623;29;20033;-88
2021/12/25 12:57:05;;;;;;;3.45;1.48;;;;;;;;;;4869761;29;20027;-90
2021/12/25 12:59:50;;;;;;;3.95;1.75;;;;;;;;;;4864327;29;20033;-82
2021/12/25 13:02:17;;;;;;;2.92;1.30;;;;;;;;;;4868028;29;20064;-82
2021/12/25 13:04:57;;;;;;;4.05;1.60;;;;;;;;;;4876979;29;20388;-89
2021/12/25 13:07:23;;;;;;;4.22;1.42;;;;;;;;;;4866344;29;20485;-79
2021/12/25 13:10:00;;;;;;;2.83;1.45;;;;;;;;;;4868666;29;20493;-85
2021/12/25 13:12:38;;;;;;;2.30;1.10;;;;;;;;;;4870440;29;20098;-80
2021/12/25 13:15:15;;;;;;;3.80;1.20;;;;;;;;;;4869490;29;20039;-82
2021/12/25 13:17:49;;;;;;;5.20;1.30;;;;;;;;;;4888659;29;20028;-82
2021/12/25 13:20:15;;;;;;;3.33;1.30;;;;;;;;;;4893235;29;20060;-91
2021/12/25 13:22:41;;;;;;;2.55;1.15;;;;;;;;;;4870497;29;20560;-87
2021/12/25 13:25:09;;;;;;;2.42;1.15;;;;;;;;;;4887317;29;20381;-85
2021/12/25 13:27:36;;;;;;;2.00;1.10;;;;;;;;;;4870985;29;20067;-80
2021/12/25 13:30:08;;;;;;;3.47;1.23;;;;;;;;;;4870518;29;20092;-81
2021/12/25 13:32:33;;;;;;;2.20;1.30;;;;;;;;;;4880265;29;20049;-82
2021/12/25 13:34:58;;;;;;;2.25;1.00;;;;;;;;;;4871106;29;20036;-82
2021/12/25 13:37:24;;;;;;;1.73;1.00;;;;;;;;;;4872238;29;20396;-86
2021/12/25 13:39:49;;;;;;;2.25;1.20;;;;;;;;;;4868163;29;20040;-86
2021/12/25 13:42:16;;;;;;;3.80;1.10;;;;;;;;;;4881457;29;20035;-82
2021/12/25 13:44:45;;;;;;;3.95;1.38;;;;;;;;;;4871713;29;20033;-80
2021/12/25 13:47:11;;;;;;;2.95;1.27;;;;;;;;;;4867423;29;20137;-80
2021/12/25 13:49:45;;;;;;;2.65;1.13;;;;;;;;;;4867995;29;20507;-85
2021/12/25 13:52:21;;;;;;;2.40;1.20;;;;;;;;;;4861245;29;20471;-88
2021/12/25 13:54:49;;;;;;;4.32;1.50;;;;;;;;;;4866292;29;20040;-84
2021/12/25 13:57:16;;;;;;;4.00;1.85;;;;;;;;;;4871933;29;20036;-85
2021/12/25 13:59:47;;;;;;;2.67;1.23;;;;;;;;;;4878756;29;20025;-82
2021/12/25 14:02:15;;;;;;;2.50;1.30;;;;;;;;;;4882893;29;20040;-82
2021/12/25 14:04:43;;;;;;;3.58;1.50;;;;;;;;;;4862489;29;20373;-80
2021/12/25 14:07:11;;;;;;;2.55;1.30;;;;;;;;;;4868555;29;20104;-89
2021/12/25 14:09:36;;;;;;;3.60;1.30;;;;;;;;;;4881353;29;20195;-82
2021/12/25 14:12:03;;;;;;;3.28;1.27;;;;;;;;;;4866488;29;20116;-82
2021/12/25 14:14:30;;;;;;;3.78;1.20;;;;;;;;;;4864866;29;20044;-81
2021/12/25 14:16:58;;;;;;;2.13;1.13;;;;;;;;;;4875701;29;20032;-82
2021/12/25 14:19:25;;;;;;;3.58;1.00;;;;;;;;;;4873352;29;20659;-81
2021/12/25 14:21:56;;;;;;;2.60;1.15;;;;;;;;;;4876428;29;20039;-86
2021/12/25 14:24:21;;;;;;;2.50;1.30;;;;;;;;;;4871373;29;20032;-86
2021/12/25 14:26:47;;;;;;;3.60;1.40;;;;;;;;;;4892579;29;20388;-91
2021/12/25 14:29:24;;;;;;;2.63;1.38;;;;;;;;;;4871955;29;20033;-92
2021/12/25 14:31:50;;;;;;;4.35;1.15;;;;;;;;;;4872463;29;20040;-82
2021/12/25 14:34:15;;;;;;;4.47;1.20;;;;;;;;;;4876047;29;20029;-80
2021/12/25 14:36:43;;;;;;;3.13;1.58;;;;;;;;;;4871077;29;20055;-82
2021/12/25 14:39:15;;;;;;;2.97;1.40;;;;;;;;;;4876906;29;20569;-91
2021/12/25 14:41:41;;;;;;;3.03;1.50;;;;;;;;;;4897026;29;20032;-80
2021/12/25 14:44:22;;;;;;;3.20;1.30;;;;;;;;;;4874662;29;20064;-80
2021/12/25 14:47:03;;;;;;;2.38;1.35;;;;;;;;;;4870401;29;20052;-91
2021/12/25 14:49:37;;;;;;;2.28;1.23;;;;;;;;;;4874376;29;20043;-82
2021/12/25 14:52:03;;;;;;;3.25;1.55;;;;;;;;;;4876972;29;20029;-91
2021/12/25 14:54:31;;;;;;;3.55;1.70;;;;;;;;;;4874795;29;20100;-81
2021/12/25 14:56:58;;;;;;;4.35;1.50;;;;;;;;;;4874101;29;20489;-91
2021/12/25 14:59:25;;;;;;;4.13;1.77;;;;;;;;;;4880031;29;20025;-89
2021/12/25 15:01:53;;;;;;;3.42;1.40;;;;;;;;;;4889788;29;20845;-82
2021/12/25 15:04:24;;;;;;;4.60;1.73;;;;;;;;;;4872368;29;20024;-87
2021/12/25 15:06:55;;;;;;;3.83;1.73;;;;;;;;;;4870580;29;20515;-87
2021/12/25 15:09:30;;;;;;;6.25;1.60;;;;;;;;;;4867919;29;20141;-91
2021/12/25 15:12:06;;;;;;;3.92;1.65;;;;;;;;;;4871064;29;20051;-82
2021/12/25 15:14:34;;;;;;;4.28;1.90;;;;;;;;;;4870909;29;20033;-91
2021/12/25 15:17:03;;;;;;;5.80;1.92;;;;;;;;;;4874286;29;20043;-82
2021/12/25 15:19:34;;;;;;;4.25;1.88;;;;;;;;;;4873860;29;20035;-87
2021/12/25 15:22:09;;;;;;;3.90;2.03;;;;;;;;;;4887123;29;20076;-81
2021/12/25 15:24:35;;;;;;;3.60;1.70;;;;;;;;;;4867798;29;20536;-91
2021/12/25 15:27:04;;;;;;;5.38;2.20;;;;;;;;;;4870571;29;20032;-92
2021/12/25 15:29:33;;;;;;;4.10;1.70;;;;;;;;;;4871243;29;20060;-82
2021/12/25 15:32:02;;;;;;;4.05;2.00;;;;;;;;;;4882124;29;20032;-93
2021/12/25 15:34:28;;;;;;;3.55;1.80;;;;;;;;;;4870919;29;20386;-86
2021/12/25 15:36:53;;;;;;;4.93;2.45;;;;;;;;;;4873926;29;20024;-86
2021/12/25 15:39:22;;;;;;;4.85;2.47;;;;;;;;;;4872883;29;20032;-82
2021/12/25 15:41:48;;;;;;;2.47;1.40;;;;;;;;;;4880002;29;22098;-85
2021/12/25 15:44:17;;;;;;;4.55;1.73;;;;;;;;;;4889835;29;20021;-92
2021/12/25 15:46:43;;;;;;;3.45;1.48;;;;;;;;;;4875284;29;20069;-91
2021/12/25 15:49:08;;;;;;;3.25;1.30;;;;;;;;;;4885400;29;20033;-91
2021/12/25 15:51:34;;;;;;;5.22;1.73;;;;;;;;;;4886303;29;20029;-82
2021/12/25 15:54:00;;;;;;;4.53;1.77;;;;;;;;;;4868074;29;20021;-80
2021/12/25 15:56:27;;;;;;;2.95;1.58;;;;;;;;;;4889186;29;20027;-89
2021/12/25 15:58:53;;;;;;;4.75;2.40;;;;;;;;;;4869457;29;20136;-81
2021/12/25 16:01:20;;;;;;;4.93;2.30;;;;;;;;;;4867415;29;20032;-86
2021/12/25 16:03:45;;;;;;;4.82;2.40;;;;;;;;;;4869619;29;20112;-83
2021/12/25 16:06:11;;;;;;;7.43;2.22;;;;;;;;;;4867347;29;20132;-91